createdAt,value
2022-08-05T00:00:16.202Z,24.04
2022-08-05T00:02:50.430Z,24.09
2022-08-05T00:06:02.039Z,24.10
2022-08-05T00:08:06.341Z,24.13
2022-08-05T00:10:53.140Z,24.18
2022-08-05T00:13:21.491Z,24.20
2022-08-05T00:16:12.602Z,24.20
2022-08-05T00:18:45.424Z,24.20
2022-08-05T00:21:14.375Z,24.18
2022-08-05T00:23:46.782Z,24.16
2022-08-05T00:26:22.117Z,24.21
2022-08-05T00:28:50.801Z,24.29
2022-08-05T00:31:54.085Z,24.47
2022-08-05T00:34:53.819Z,24.52
2022-08-05T00:37:09.673Z,24.47
2022-08-05T00:39:57.211Z,24.43
2022-08-05T00:42:35.466Z,24.41
2022-08-05T00:45:08.370Z,24.33
2022-08-05T00:47:56.367Z,24.28
2022-08-05T00:50:25.289Z,24.24
2022-08-05T00:52:56.573Z,24.17
2022-08-05T00:55:42.210Z,24.11
2022-08-05T00:58:11.614Z,24.06
2022-08-05T01:00:39.855Z,24.00
2022-08-05T01:03:07.919Z,23.94
2022-08-05T01:05:35.734Z,23.89
2022-08-05T01:08:42.232Z,23.87
2022-08-05T01:10:52.363Z,23.84
2022-08-05T01:13:58.585Z,23.80
2022-08-05T01:16:31.081Z,23.76
2022-08-05T01:19:14.305Z,23.75
2022-08-05T01:22:00.172Z,23.65
2022-08-05T01:24:46.533Z,23.59
2022-08-05T01:27:33.094Z,23.46
2022-08-05T01:30:02.844Z,23.36
2022-08-05T01:32:33.241Z,23.32
2022-08-05T01:35:03.193Z,23.15
2022-08-05T01:37:44.426Z,23.11
2022-08-05T01:40:14.578Z,23.04
2022-08-05T01:42:47.360Z,23.00
2022-08-05T01:45:16.632Z,22.94
2022-08-05T01:47:47.788Z,22.93
2022-08-05T01:50:35.659Z,22.82
2022-08-05T01:53:06.651Z,22.82
2022-08-05T01:55:36.903Z,22.84
2022-08-05T01:58:15.604Z,22.78
2022-08-05T02:00:46.564Z,22.80
2022-08-05T02:03:34.270Z,22.77
2022-08-05T02:06:37.478Z,22.77
2022-08-05T02:08:58.826Z,22.79
2022-08-05T02:11:33.359Z,22.73
2022-08-05T02:14:05.064Z,22.69
2022-08-05T02:16:37.317Z,22.70
2022-08-05T02:19:12.029Z,22.70
2022-08-05T02:21:46.796Z,22.64
2022-08-05T02:24:18.894Z,22.65
2022-08-05T02:26:54.914Z,22.65
2022-08-05T02:29:59.152Z,22.61
2022-08-05T02:32:23.780Z,22.62
2022-08-05T02:34:54.983Z,22.61
2022-08-05T02:37:23.712Z,22.60
2022-08-05T02:39:52.250Z,22.64
2022-08-05T02:42:26.028Z,22.65
2022-08-05T02:44:55.783Z,22.68
2022-08-05T02:47:23.782Z,22.65
2022-08-05T02:49:51.387Z,22.64
2022-08-05T02:52:30.186Z,22.66
2022-08-05T02:55:01.900Z,22.59
2022-08-05T02:58:11.079Z,22.61
2022-08-05T03:00:20.385Z,22.63
2022-08-05T03:02:48.751Z,22.59
2022-08-05T03:05:16.185Z,22.56
2022-08-05T03:10:36.184Z,22.51
2022-08-05T03:13:11.557Z,22.48
2022-08-05T03:15:45.430Z,22.48
2022-08-05T03:18:12.540Z,22.44
2022-08-05T03:20:48.982Z,22.44
2022-08-05T03:23:17.793Z,22.48
2022-08-05T03:26:30.142Z,22.42
2022-08-05T03:28:32.992Z,22.41
2022-08-05T03:31:01.794Z,22.39
2022-08-05T03:33:51.275Z,22.37
2022-08-05T03:36:17.042Z,22.39
2022-08-05T03:38:58.225Z,22.35
2022-08-05T03:41:26.257Z,22.35
2022-08-05T03:44:11.478Z,22.37
2022-08-05T03:46:39.910Z,22.38
2022-08-05T03:49:06.895Z,22.35
2022-08-05T03:52:38.912Z,22.35
2022-08-05T03:56:01.680Z,22.36
2022-08-05T03:57:41.775Z,22.39
2022-08-05T04:00:15.935Z,22.40
2022-08-05T04:02:58.344Z,22.43
2022-08-05T04:05:33.243Z,22.42
2022-08-05T04:08:05.464Z,22.45
2022-08-05T04:10:37.913Z,22.44
2022-08-05T04:13:06.701Z,22.46
2022-08-05T04:15:35.845Z,22.51
2022-08-05T04:18:07.381Z,22.52
2022-08-05T04:20:37.700Z,22.53
2022-08-05T04:23:12.666Z,22.54
2022-08-05T04:25:57.316Z,22.57
2022-08-05T04:28:30.556Z,22.68
2022-08-05T04:31:00.848Z,22.68
2022-08-05T04:34:17.662Z,22.71
2022-08-05T04:36:44.873Z,22.74
2022-08-05T04:39:05.750Z,22.76
2022-08-05T04:41:37.701Z,22.84
2022-08-05T04:44:09.311Z,22.86
2022-08-05T04:46:39.417Z,22.92
2022-08-05T04:49:12.107Z,22.96
2022-08-05T04:51:44.970Z,23.04
2022-08-05T04:54:14.974Z,23.07
2022-08-05T04:56:43.685Z,23.14
2022-08-05T04:59:23.877Z,23.21
2022-08-05T05:02:06.992Z,23.27
2022-08-05T05:04:49.687Z,23.37
2022-08-05T05:07:18.443Z,23.40
2022-08-05T05:09:53.520Z,23.49
2022-08-05T05:12:24.542Z,23.69
2022-08-05T05:14:55.172Z,23.67
2022-08-05T05:17:24.899Z,23.86
2022-08-05T05:20:11.792Z,23.86
2022-08-05T05:22:43.976Z,24.04
2022-08-05T05:27:44.458Z,24.46
2022-08-05T05:30:29.881Z,24.85
2022-08-05T05:33:15.823Z,25.46
2022-08-05T05:35:47.073Z,26.67
2022-08-05T05:38:27.008Z,28.42
2022-08-05T05:41:02.868Z,29.63
2022-08-05T05:44:15.735Z,30.65
2022-08-05T05:51:13.096Z,32.82
2022-08-05T05:53:57.381Z,33.77
2022-08-05T05:56:35.200Z,34.04
2022-08-05T05:59:18.261Z,34.04
2022-08-05T06:01:58.235Z,33.59
2022-08-05T06:04:25.972Z,33.31
2022-08-05T06:06:56.512Z,34.34
2022-08-05T06:10:00.247Z,33.81
2022-08-05T06:12:16.930Z,33.61
2022-08-05T06:14:48.678Z,33.59
2022-08-05T06:17:52.376Z,33.64
2022-08-05T06:20:09.677Z,34.12
2022-08-05T06:22:50.063Z,33.62
2022-08-05T06:25:25.180Z,34.31
2022-08-05T06:28:10.447Z,35.25
2022-08-05T06:30:40.507Z,34.78
2022-08-05T06:33:09.956Z,35.64
2022-08-05T06:36:03.944Z,35.38
2022-08-05T06:38:36.233Z,35.16
2022-08-05T06:41:07.674Z,34.96
2022-08-05T06:43:57.576Z,34.72
2022-08-05T06:46:29.709Z,34.47
2022-08-05T06:49:01.277Z,34.64
2022-08-05T06:51:31.065Z,34.65
2022-08-05T06:54:04.837Z,34.88
2022-08-05T06:56:39.521Z,34.21
2022-08-05T06:59:11.982Z,34.46
2022-08-05T07:01:42.400Z,34.59
2022-08-05T07:04:10.254Z,35.28
2022-08-05T07:06:37.382Z,34.71
2022-08-05T07:09:08.501Z,34.33
2022-08-05T07:11:51.743Z,33.77
2022-08-05T07:14:39.437Z,33.65
2022-08-05T07:17:59.533Z,33.47
2022-08-05T07:22:44.117Z,33.30
2022-08-05T07:25:54.728Z,33.59
2022-08-05T07:28:04.187Z,33.03
2022-08-05T07:30:39.761Z,32.80
2022-08-05T07:33:15.996Z,33.36
2022-08-05T07:36:02.761Z,34.08
2022-08-05T07:38:43.441Z,34.38
2022-08-05T07:42:13.615Z,34.27
2022-08-05T07:44:18.912Z,34.85
2022-08-05T07:46:48.408Z,35.16
2022-08-05T07:49:16.266Z,35.25
2022-08-05T07:51:53.269Z,35.58
2022-08-05T07:54:31.190Z,34.95
2022-08-05T07:57:18.005Z,35.03
2022-08-05T07:59:49.155Z,35.33
2022-08-05T08:02:26.685Z,35.19
2022-08-05T08:04:59.625Z,35.13
2022-08-05T08:07:28.339Z,35.36
2022-08-05T08:09:55.732Z,35.26
2022-08-05T08:12:33.348Z,35.24
2022-08-05T08:15:05.267Z,35.52
2022-08-05T08:17:46.282Z,35.55
2022-08-05T08:20:43.976Z,35.67
2022-08-05T08:24:00.298Z,35.75
2022-08-05T08:26:02.405Z,35.62
2022-08-05T08:28:36.831Z,35.24
2022-08-05T08:31:18.994Z,35.19
2022-08-05T08:33:51.422Z,35.27
2022-08-05T08:36:39.284Z,35.32
2022-08-05T08:39:14.966Z,35.28
2022-08-05T08:41:52.656Z,34.84
2022-08-05T08:45:18.645Z,34.86
2022-08-05T08:47:47.238Z,34.93
2022-08-05T08:50:31.044Z,34.73
2022-08-05T08:53:01.859Z,34.89
2022-08-05T08:56:04.146Z,34.91
2022-08-05T08:58:37.246Z,35.13
2022-08-05T09:01:15.870Z,35.43
2022-08-05T09:03:46.583Z,35.19
2022-08-05T09:06:18.658Z,35.18
2022-08-05T09:08:47.832Z,35.08
2022-08-05T09:11:15.743Z,34.90
2022-08-05T09:14:09.345Z,34.75
2022-08-05T09:16:33.263Z,34.64
2022-08-05T09:19:01.179Z,34.78
2022-08-05T09:22:22.972Z,34.87
2022-08-05T09:24:21.399Z,34.88
2022-08-05T09:26:52.646Z,34.81
2022-08-05T09:29:20.149Z,34.91
2022-08-05T09:32:42.927Z,34.93
2022-08-05T09:34:58.857Z,34.91
2022-08-05T09:38:12.055Z,34.88
2022-08-05T09:40:29.788Z,34.75
2022-08-05T09:42:59.263Z,34.78
2022-08-05T09:46:06.959Z,34.65
2022-08-05T09:48:27.256Z,34.66
2022-08-05T09:51:00.420Z,34.64
2022-08-05T09:53:54.327Z,34.48
2022-08-05T09:56:23.885Z,34.60
2022-08-05T09:59:00.133Z,34.73
2022-08-05T10:01:32.012Z,34.78
2022-08-05T10:04:10.478Z,34.73
2022-08-05T10:06:40.746Z,34.48
2022-08-05T10:09:27.303Z,34.39
2022-08-05T10:11:56.131Z,34.25
2022-08-05T10:14:26.697Z,34.01
2022-08-05T10:16:57.725Z,33.70
2022-08-05T10:20:03.767Z,33.61
2022-08-05T10:22:29.784Z,33.38
2022-08-05T10:24:58.046Z,33.25
2022-08-05T10:28:13.166Z,33.10
2022-08-05T10:32:46.714Z,33.05
2022-08-05T10:33:09.407Z,33.01
2022-08-05T10:35:44.243Z,33.03
2022-08-05T10:38:12.768Z,32.99
2022-08-05T10:40:43.477Z,33.03
2022-08-05T10:43:12.634Z,33.03
2022-08-05T10:45:42.954Z,33.07
2022-08-05T10:48:35.089Z,33.08
2022-08-05T10:51:22.177Z,33.08
2022-08-05T10:53:50.211Z,33.11
2022-08-05T10:56:25.170Z,33.16
2022-08-05T11:00:02.963Z,33.11
2022-08-05T11:02:14.736Z,33.12
2022-08-05T11:04:55.678Z,33.21
2022-08-05T11:07:32.742Z,33.26
2022-08-05T11:10:21.888Z,33.23
2022-08-05T11:12:55.717Z,33.29
2022-08-05T11:15:58.985Z,33.30
2022-08-05T11:18:27.315Z,33.21
2022-08-05T11:20:57.473Z,33.25
2022-08-05T11:24:02.562Z,33.26
2022-08-05T11:26:28.583Z,33.27
2022-08-05T11:29:11.490Z,33.26
2022-08-05T11:31:57.639Z,33.29
2022-08-05T11:34:37.987Z,33.28
2022-08-05T11:37:06.271Z,33.27
2022-08-05T11:40:00.340Z,33.27
2022-08-05T11:42:31.956Z,33.24
2022-08-05T11:45:05.427Z,33.27
2022-08-05T11:47:49.896Z,33.36
2022-08-05T11:50:18.650Z,33.44
2022-08-05T11:52:49.508Z,33.40
2022-08-05T11:55:17.206Z,33.47
2022-08-05T11:58:10.089Z,33.49
2022-08-05T12:00:38.615Z,33.44
2022-08-05T12:03:28.930Z,33.45
2022-08-05T12:05:59.503Z,33.44
2022-08-05T12:08:27.150Z,33.43
2022-08-05T12:10:54.497Z,33.45
2022-08-05T12:13:47.626Z,33.50
2022-08-05T12:16:14.775Z,33.49
2022-08-05T12:18:49.489Z,33.45
2022-08-05T12:21:20.991Z,33.45
2022-08-05T12:24:06.998Z,33.45
2022-08-05T12:26:44.782Z,33.51
2022-08-05T12:29:16.150Z,33.48
2022-08-05T12:31:48.318Z,33.51
2022-08-05T12:34:25.956Z,33.51
2022-08-05T12:36:54.770Z,33.52
2022-08-05T12:39:27.786Z,33.55
2022-08-05T12:42:02.175Z,33.59
2022-08-05T12:44:33.648Z,33.63
2022-08-05T12:47:02.217Z,33.59
2022-08-05T12:50:04.652Z,33.60
2022-08-05T12:52:35.428Z,33.62
2022-08-05T12:55:22.139Z,33.62
2022-08-05T12:58:49.053Z,33.58
2022-08-05T13:02:02.672Z,33.54
2022-08-05T13:03:32.510Z,33.59
2022-08-05T13:06:01.051Z,33.64
2022-08-05T13:08:29.326Z,33.67
2022-08-05T13:11:02.589Z,33.68
2022-08-05T13:14:05.789Z,33.68
2022-08-05T13:16:19.991Z,33.68
2022-08-05T13:18:55.045Z,33.71
2022-08-05T13:21:27.709Z,33.75
2022-08-05T13:23:58.687Z,33.80
2022-08-05T13:26:30.259Z,33.85
2022-08-05T13:28:57.538Z,33.92
2022-08-05T13:31:33.879Z,33.89
2022-08-05T13:34:20.919Z,33.90
2022-08-05T13:36:52.626Z,33.90
2022-08-05T13:40:13.016Z,33.85
2022-08-05T13:42:07.321Z,33.83
2022-08-05T13:44:34.629Z,33.83
2022-08-05T13:47:08.503Z,33.81
2022-08-05T13:49:36.629Z,33.82
2022-08-05T13:52:10.049Z,33.86
2022-08-05T13:54:37.589Z,33.88
2022-08-05T13:57:04.965Z,33.88
2022-08-05T13:59:33.225Z,33.89
2022-08-05T14:02:04.457Z,33.92
2022-08-05T14:04:51.737Z,33.96
2022-08-05T14:07:55.766Z,33.96
2022-08-05T14:10:08.474Z,33.96
2022-08-05T14:12:36.686Z,33.89
2022-08-05T14:15:05.931Z,33.89
2022-08-05T14:17:51.680Z,33.94
2022-08-05T14:20:27.432Z,33.98
2022-08-05T14:22:54.845Z,34.00
2022-08-05T14:25:22.788Z,33.97
2022-08-05T14:27:56.405Z,33.98
2022-08-05T14:30:27.777Z,33.99
2022-08-05T14:32:56.794Z,34.02
2022-08-05T14:35:37.031Z,34.01
2022-08-05T14:38:32.041Z,34.03
2022-08-05T14:41:00.255Z,34.03
2022-08-05T14:44:01.645Z,33.99
2022-08-05T14:46:14.595Z,33.94
2022-08-05T14:48:43.121Z,33.96
2022-08-05T14:51:16.526Z,33.95
2022-08-05T14:53:45.294Z,33.94
2022-08-05T14:56:33.296Z,33.93
2022-08-05T14:59:02.535Z,33.96
2022-08-05T15:01:48.646Z,34.01
2022-08-05T15:04:20.759Z,34.02
2022-08-05T15:06:50.257Z,34.02
2022-08-05T15:09:50.627Z,34.03
2022-08-05T15:12:05.969Z,34.06
2022-08-05T15:14:36.858Z,34.05
2022-08-05T15:17:46.550Z,34.03
2022-08-05T15:20:09.750Z,34.04
2022-08-05T15:22:44.728Z,34.02
2022-08-05T15:25:14.339Z,34.03
2022-08-05T15:27:52.067Z,34.02
2022-08-05T15:30:19.902Z,34.00
2022-08-05T15:32:46.995Z,33.97
2022-08-05T15:35:16.245Z,33.95
2022-08-05T15:38:32.667Z,33.91
2022-08-05T15:41:00.836Z,33.88
2022-08-05T15:43:20.058Z,33.89
2022-08-05T15:45:47.920Z,33.89
2022-08-05T15:48:28.639Z,33.87
2022-08-05T15:50:56.489Z,33.85
2022-08-05T15:53:26.711Z,33.83
2022-08-05T15:56:13.028Z,33.83
2022-08-05T15:58:41.597Z,33.85
2022-08-05T16:01:16.654Z,33.86
2022-08-05T16:03:48.332Z,33.85
2022-08-05T16:06:20.898Z,33.86
2022-08-05T16:08:51.234Z,33.79
2022-08-05T16:11:40.135Z,33.78
2022-08-05T16:14:08.971Z,33.74
2022-08-05T16:16:36.667Z,33.67
2022-08-05T16:19:06.573Z,33.60
2022-08-05T16:21:58.728Z,33.53
2022-08-05T16:24:39.529Z,33.53
2022-08-05T16:27:08.684Z,33.52
2022-08-05T16:29:38.987Z,33.47
2022-08-05T16:32:10.074Z,33.37
2022-08-05T16:34:42.435Z,33.29
2022-08-05T16:38:02.635Z,33.21
2022-08-05T16:40:05.748Z,33.14
2022-08-05T16:42:36.309Z,33.14
2022-08-05T16:46:05.334Z,33.10
2022-08-05T16:48:25.411Z,33.03
2022-08-05T16:51:00.339Z,32.97
2022-08-05T16:53:32.019Z,32.96
2022-08-05T16:55:59.676Z,32.92
2022-08-05T16:58:27.815Z,32.88
2022-08-05T17:00:56.684Z,32.84
2022-08-05T17:03:32.189Z,32.82
2022-08-05T17:06:01.800Z,32.80
2022-08-05T17:08:52.202Z,32.78
2022-08-05T17:11:26.973Z,32.74
2022-08-05T17:14:06.151Z,32.72
2022-08-05T17:16:45.221Z,32.70
2022-08-05T17:19:35.575Z,32.69
2022-08-05T17:22:25.009Z,32.67
2022-08-05T17:25:09.696Z,32.65
2022-08-05T17:28:19.054Z,32.60
2022-08-05T17:31:08.363Z,32.55
2022-08-05T17:34:03.045Z,32.47
2022-08-05T17:36:40.065Z,32.39
2022-08-05T17:39:23.664Z,32.32
2022-08-05T17:42:18.520Z,32.23
2022-08-05T17:44:57.847Z,32.18
2022-08-05T17:47:45.317Z,32.11
2022-08-05T17:50:30.808Z,32.04
2022-08-05T17:53:08.638Z,31.99
2022-08-05T17:55:42.315Z,31.95
2022-08-05T17:58:52.559Z,31.91
2022-08-05T18:01:49.579Z,31.80
2022-08-05T18:04:27.258Z,31.68
2022-08-05T18:07:00.549Z,31.60
2022-08-05T18:09:59.942Z,31.49
2022-08-05T18:12:23.771Z,31.41
2022-08-05T18:14:53.753Z,31.33
2022-08-05T18:17:58.739Z,31.29
2022-08-05T18:20:15.678Z,31.21
2022-08-05T18:22:46.196Z,31.14
2022-08-05T18:25:23.020Z,31.03
2022-08-05T18:27:54.743Z,31.00
2022-08-05T18:30:23.298Z,30.99
2022-08-05T18:33:01.157Z,30.97
2022-08-05T18:36:00.009Z,30.97
2022-08-05T18:38:19.487Z,30.90
2022-08-05T18:41:53.757Z,30.81
2022-08-05T18:43:43.123Z,30.74
2022-08-05T18:46:20.258Z,30.75
2022-08-05T18:48:53.864Z,30.76
2022-08-05T18:52:06.597Z,30.74
2022-08-05T18:54:27.609Z,30.75
2022-08-05T18:56:58.349Z,30.71
2022-08-05T18:59:44.279Z,30.65
2022-08-05T19:02:28.352Z,30.58
2022-08-05T19:05:02.561Z,30.52
2022-08-05T19:07:49.680Z,30.44
2022-08-05T19:10:18.710Z,30.37
2022-08-05T19:12:53.661Z,30.32
2022-08-05T19:15:56.885Z,30.26
2022-08-05T19:18:13.421Z,30.19
2022-08-05T19:20:52.291Z,30.14
2022-08-05T19:24:05.771Z,30.07
2022-08-05T19:26:09.332Z,30.04
2022-08-05T19:28:42.045Z,30.00
2022-08-05T19:31:13.255Z,29.94
2022-08-05T19:33:55.672Z,29.92
2022-08-05T19:36:29.158Z,29.86
2022-08-05T19:39:00.984Z,29.79
2022-08-05T19:41:58.220Z,29.75
2022-08-05T19:44:18.914Z,29.68
2022-08-05T19:46:50.114Z,29.63
2022-08-05T19:49:18.098Z,29.57
2022-08-05T19:52:08.324Z,29.51
2022-08-05T19:54:34.299Z,29.44
2022-08-05T19:57:06.269Z,29.39
2022-08-05T19:59:54.746Z,29.35
2022-08-05T20:02:26.016Z,29.33
2022-08-05T20:04:58.375Z,29.28
2022-08-05T20:07:46.744Z,29.21
2022-08-05T20:10:17.434Z,29.17
2022-08-05T20:12:49.474Z,29.12
2022-08-05T20:15:48.782Z,29.04
2022-08-05T20:18:33.606Z,28.99
2022-08-05T20:21:07.734Z,28.95
2022-08-05T20:23:50.246Z,28.89
2022-08-05T20:26:30.709Z,28.82
2022-08-05T20:29:00.843Z,28.76
2022-08-05T20:31:42.880Z,28.72
2022-08-05T20:34:17.090Z,28.68
2022-08-05T20:36:44.736Z,28.64
2022-08-05T20:39:12.957Z,28.58
2022-08-05T20:41:44.201Z,28.53
2022-08-05T20:44:17.564Z,28.46
2022-08-05T20:46:47.485Z,28.41
2022-08-05T20:49:23.911Z,28.36
2022-08-05T20:51:53.655Z,28.31
2022-08-05T20:54:55.581Z,28.27
2022-08-05T20:57:42.661Z,28.24
2022-08-05T21:00:35.108Z,28.20
2022-08-05T21:03:02.875Z,28.19
2022-08-05T21:05:47.421Z,28.18
2022-08-05T21:08:15.695Z,28.14
2022-08-05T21:10:48.634Z,28.12
2022-08-05T21:13:37.848Z,28.08
2022-08-05T21:16:04.224Z,28.04
2022-08-05T21:18:31.299Z,28.01
2022-08-05T21:20:58.329Z,27.98
2022-08-05T21:23:25.540Z,27.95
2022-08-05T21:25:55.471Z,27.92
2022-08-05T21:28:23.843Z,27.91
2022-08-05T21:30:51.704Z,27.88
2022-08-05T21:33:22.606Z,27.87
2022-08-05T21:35:59.016Z,27.84
2022-08-05T21:38:26.750Z,27.80
2022-08-05T21:40:54.668Z,27.77
2022-08-05T21:43:24.739Z,27.73
2022-08-05T21:45:57.568Z,27.70
2022-08-05T21:48:28.740Z,27.67
2022-08-05T21:50:59.622Z,27.60
2022-08-05T21:53:38.255Z,27.58
2022-08-05T21:56:16.547Z,27.54
2022-08-05T21:58:57.065Z,27.52
2022-08-05T22:01:26.605Z,27.50
2022-08-05T22:03:56.164Z,27.49
2022-08-05T22:06:35.634Z,27.49
2022-08-05T22:09:13.627Z,27.49
2022-08-05T22:11:46.703Z,27.44
2022-08-05T22:14:35.857Z,27.40
2022-08-05T22:17:05.400Z,27.35
2022-08-05T22:20:00.467Z,27.29
2022-08-05T22:22:29.981Z,27.27
2022-08-05T22:25:27.800Z,27.23
2022-08-05T22:28:11.922Z,27.21
2022-08-05T22:30:55.966Z,27.18
2022-08-05T22:33:56.890Z,27.17
2022-08-05T22:36:14.585Z,27.13
2022-08-05T22:38:42.749Z,27.08
2022-08-05T22:41:11.541Z,27.06
2022-08-05T22:43:40.808Z,27.06
2022-08-05T22:46:13.295Z,27.05
2022-08-05T22:48:45.656Z,27.06
2022-08-05T22:51:16.050Z,27.13
2022-08-05T22:53:55.116Z,27.21
2022-08-05T22:56:30.693Z,27.30
2022-08-05T22:59:04.652Z,27.39
2022-08-05T23:02:04.930Z,27.46
2022-08-05T23:04:34.854Z,27.52
2022-08-05T23:07:02.147Z,27.56
2022-08-05T23:09:58.070Z,27.54
2022-08-05T23:12:23.896Z,27.45
2022-08-05T23:14:51.331Z,27.35
2022-08-05T23:17:34.249Z,27.29
2022-08-05T23:20:17.658Z,27.17
2022-08-05T23:22:49.536Z,27.05
2022-08-05T23:25:52.817Z,27.00
2022-08-05T23:28:39.555Z,26.95
2022-08-05T23:31:18.043Z,26.91
2022-08-05T23:34:04.422Z,26.86
2022-08-05T23:36:46.241Z,26.86
2022-08-05T23:39:32.461Z,26.83
2022-08-05T23:42:28.966Z,26.83
2022-08-05T23:45:04.264Z,26.82
2022-08-05T23:47:48.379Z,26.83
2022-08-05T23:50:39.708Z,26.85
2022-08-05T23:53:22.896Z,26.89
2022-08-05T23:56:01.390Z,26.87
2022-08-05T23:58:37.309Z,26.85
